Time;durP1;ratioP1;P1;durP2;ratioP2;P2;SDS_P1;SDS_P2;PMS_P1;PMS_P2;Temp;Humidity;BMP_temperature;BMP_pressure;BME280_temperature;BME280_humidity;BME280_pressure;Samples;Min_cycle;Max_cycle;Signal;HPM_P1;HPM_P2
2022/02/10 00:13:44;;;;;;;;;56.75;37.50;;;;;;;;5057088;28;51674;-52
2022/02/10 00:34:13;;;;;;;;;51.50;39.25;;;;;;;;5052147;28;51409;-51
2022/02/10 00:40:07;;;;;;;;;54.50;40.25;;;;;;;;5038887;28;51132;-51
2022/02/10 00:42:51;;;;;;;;;56.75;38.00;;;;;;;;5038715;28;51032;-49
2022/02/10 00:45:36;;;;;;;;;55.50;36.50;;;;;;;;5039152;28;51009;-51
2022/02/10 00:48:21;;;;;;;;;49.00;37.50;;;;;;;;5039550;28;51179;-53
2022/02/10 00:51:06;;;;;;;;;58.00;39.00;;;;;;;;5045679;28;51108;-49
2022/02/10 00:53:51;;;;;;;;;50.75;37.00;;;;;;;;5054511;28;51174;-49
2022/02/10 00:56:36;;;;;;;;;55.25;40.50;;;;;;;;5046004;28;51082;-51
2022/02/10 01:11:40;;;;;;;;;50.00;37.50;;;;;;;;5038658;28;51162;-52
2022/02/10 01:29:41;;;;;;;;;51.75;39.25;;;;;;;;5056211;28;51119;-51
2022/02/10 01:32:27;;;;;;;;;53.00;39.25;;;;;;;;5056595;28;51071;-48
2022/02/10 01:35:14;;;;;;;;;51.50;37.50;;;;;;;;5051483;28;51154;-49
2022/02/10 01:37:59;;;;;;;;;50.50;39.00;;;;;;;;5056952;28;51196;-50
2022/02/10 02:04:48;;;;;;;;;46.50;35.25;;;;;;;;5042138;28;51334;-49
2022/02/10 02:07:33;;;;;;;;;50.75;39.00;;;;;;;;5053235;28;51445;-51
2022/02/10 02:10:17;;;;;;;;;56.25;38.00;;;;;;;;5040834;28;51756;-48
2022/02/10 02:13:02;;;;;;;;;54.00;39.00;;;;;;;;5045534;28;51209;-50
2022/02/10 02:15:47;;;;;;;;;53.75;37.00;;;;;;;;5045346;28;51150;-53
2022/02/10 02:18:32;;;;;;;;;52.25;38.50;;;;;;;;5043520;28;51395;-51
2022/02/10 02:21:20;;;;;;;;;53.00;38.25;;;;;;;;5042604;28;51085;-49
2022/02/10 02:24:13;;;;;;;;;57.50;38.50;;;;;;;;5057541;28;51495;-51
2022/02/10 02:27:03;;;;;;;;;50.50;38.00;;;;;;;;5041841;28;51145;-50
2022/02/10 02:29:58;;;;;;;;;55.75;39.25;;;;;;;;5049305;28;51029;-48
2022/02/10 02:32:51;;;;;;;;;55.50;39.00;;;;;;;;5044147;28;51103;-50
2022/02/10 02:36:02;;;;;;;;;53.00;39.25;;;;;;;;5040136;28;51075;-48
2022/02/10 03:06:15;;;;;;;;;53.75;39.50;;;;;;;;5042421;28;51162;-47
2022/02/10 03:09:05;;;;;;;;;55.00;39.75;;;;;;;;5043794;28;51127;-48
2022/02/10 03:11:49;;;;;;;;;58.25;39.75;;;;;;;;5040648;28;51556;-53
2022/02/10 03:14:37;;;;;;;;;52.75;38.50;;;;;;;;5042823;28;51114;-49
2022/02/10 03:17:42;;;;;;;;;50.50;36.25;;;;;;;;5040493;28;51188;-54
2022/02/10 04:09:16;;;;;;;;;58.25;39.50;;;;;;;;5042025;28;52580;-50
2022/02/10 04:15:29;;;;;;;;;51.00;37.50;;;;;;;;5042711;28;51130;-51
2022/02/10 04:26:57;;;;;;;;;55.00;41.25;;;;;;;;5041360;28;51079;-45
2022/02/10 04:38:39;;;;;;;;;51.25;40.00;;;;;;;;5047473;28;51679;-50
2022/02/10 04:42:53;;;;;;;;;59.00;43.25;;;;;;;;5042381;28;51092;-50
2022/02/10 04:57:13;;;;;;;;;59.50;44.25;;;;;;;;5035244;28;51153;-52
2022/02/10 05:00:15;;;;;;;;;67.00;47.00;;;;;;;;5047721;28;51526;-51
2022/02/10 05:03:37;;;;;;;;;62.75;47.25;;;;;;;;5042696;28;51221;-48
2022/02/10 05:33:21;;;;;;;;;70.75;52.25;;;;;;;;5044159;28;51132;-51
2022/02/10 05:36:08;;;;;;;;;75.00;52.75;;;;;;;;5048615;28;51047;-53
2022/02/10 05:39:04;;;;;;;;;70.25;55.25;;;;;;;;5053796;28;51080;-51
2022/02/10 05:44:51;;;;;;;;;69.00;53.00;;;;;;;;5057819;28;51499;-52
2022/02/10 05:57:31;;;;;;;;;67.50;50.50;;;;;;;;5055181;28;51192;-47
2022/02/10 07:07:33;;;;;;;;;77.25;60.00;;;;;;;;5041220;28;51192;-55
2022/02/10 07:13:35;;;;;;;;;70.25;53.00;;;;;;;;4309116;31;1754009;-55
2022/02/10 07:57:35;;;;;;;;;90.75;71.75;;;;;;;;5054490;28;51197;-55
2022/02/10 08:53:24;;;;;;;;;50.50;39.50;;;;;;;;4992094;28;51089;-57
2022/02/10 09:04:51;;;;;;;;;52.00;36.75;;;;;;;;5032716;28;51241;-57
2022/02/10 09:50:25;;;;;;;;;47.75;33.50;;;;;;;;5037241;28;51154;-55
2022/02/10 10:03:39;;;;;;;;;54.25;37.50;;;;;;;;5036967;28;51108;-54
2022/02/10 10:06:40;;;;;;;;;53.25;37.25;;;;;;;;5039065;28;51636;-53
2022/02/10 10:15:36;;;;;;;;;48.25;36.25;;;;;;;;5037959;28;51524;-54
2022/02/10 10:21:26;;;;;;;;;50.25;37.50;;;;;;;;5037949;28;51228;-54
2022/02/10 10:27:46;;;;;;;;;50.00;35.75;;;;;;;;5037565;28;51187;-55
2022/02/10 10:50:18;;;;;;;;;56.50;39.75;;;;;;;;5038547;28;51091;-53
2022/02/10 10:53:06;;;;;;;;;54.75;39.00;;;;;;;;5036781;28;51165;-54
2022/02/10 10:55:50;;;;;;;;;54.00;40.75;;;;;;;;5032907;28;51535;-51
2022/02/10 11:22:38;;;;;;;;;50.75;34.75;;;;;;;;5036956;28;51120;-54
2022/02/10 11:23:24;;;;;;;;;48.50;37.25;;;;;;;;5027905;28;51602;-52
2022/02/10 12:36:39;;;;;;;;;53.25;36.75;;;;;;;;5051666;27;51297;-62
2022/02/10 12:43:31;;;;;;;;;52.25;38.00;;;;;;;;5096560;27;51184;-62
2022/02/10 13:30:38;;;;;;;;;47.25;36.25;;;;;;;;5070629;27;51036;-64
2022/02/10 13:48:19;;;;;;;;;54.00;39.50;;;;;;;;5068157;27;51719;-62
2022/02/10 14:18:23;;;;;;;;;53.75;36.50;;;;;;;;5070290;27;51552;-63
2022/02/10 14:21:16;;;;;;;;;51.75;38.00;;;;;;;;5080668;27;51015;-62
2022/02/10 14:26:48;;;;;;;;;48.00;37.50;;;;;;;;5077708;27;51090;-62
2022/02/10 14:29:34;;;;;;;;;52.25;36.50;;;;;;;;5077764;27;51120;-62
2022/02/10 14:32:22;;;;;;;;;48.00;38.50;;;;;;;;5080905;27;51198;-62
2022/02/10 14:35:23;;;;;;;;;56.75;37.50;;;;;;;;5074060;27;51153;-63
2022/02/10 14:41:32;;;;;;;;;46.50;29.25;;;;;;;;5081093;27;51674;-63
2022/02/10 15:53:29;;;;;;;;;49.25;36.00;;;;;;;;5079494;27;51146;-61
2022/02/10 15:56:41;;;;;;;;;48.75;35.00;;;;;;;;5062738;28;51116;-62
2022/02/10 16:17:27;;;;;;;;;54.25;39.25;;;;;;;;5064990;28;51110;-61
2022/02/10 16:20:18;;;;;;;;;48.50;37.00;;;;;;;;5077758;28;51127;-64
2022/02/10 16:23:08;;;;;;;;;55.75;39.00;;;;;;;;5061696;28;51325;-63
2022/02/10 16:26:10;;;;;;;;;50.75;37.00;;;;;;;;5078828;28;51156;-63
2022/02/10 16:28:54;;;;;;;;;48.50;33.75;;;;;;;;5079884;28;51782;-61
2022/02/10 16:31:39;;;;;;;;;49.75;36.50;;;;;;;;5079447;28;51165;-63
2022/02/10 16:34:23;;;;;;;;;50.25;34.75;;;;;;;;5068790;28;50980;-63
2022/02/10 16:37:09;;;;;;;;;49.00;34.00;;;;;;;;5068651;28;51083;-61
2022/02/10 16:39:53;;;;;;;;;52.50;36.00;;;;;;;;5065558;28;51149;-63
2022/02/10 16:42:38;;;;;;;;;39.25;30.50;;;;;;;;5069444;28;51181;-62
2022/02/10 16:45:22;;;;;;;;;46.50;34.25;;;;;;;;5062494;28;51382;-61
2022/02/10 16:48:07;;;;;;;;;49.25;36.00;;;;;;;;5079571;28;51184;-63
2022/02/10 16:50:52;;;;;;;;;54.50;37.50;;;;;;;;5066155;28;51078;-62
2022/02/10 16:53:40;;;;;;;;;48.50;36.25;;;;;;;;5061406;28;51448;-62
2022/02/10 16:56:33;;;;;;;;;47.25;35.75;;;;;;;;5072514;28;51330;-63
2022/02/10 17:14:10;;;;;;;;;48.00;34.50;;;;;;;;5079544;27;51343;-62
2022/02/10 17:25:37;;;;;;;;;48.00;37.50;;;;;;;;5081203;27;51411;-62
2022/02/10 17:28:21;;;;;;;;;46.50;36.50;;;;;;;;5082147;27;51121;-63
2022/02/10 17:31:24;;;;;;;;;50.00;34.75;;;;;;;;5073905;27;51127;-62
2022/02/10 17:43:48;;;;;;;;;48.50;37.50;;;;;;;;5082363;27;51094;-62
2022/02/10 17:46:08;;;;;;;;;54.50;35.25;;;;;;;;5082648;27;51605;-62
2022/02/10 17:54:41;;;;;;;;;51.25;38.00;;;;;;;;5057035;27;51054;-62
2022/02/10 17:57:26;;;;;;;;;53.50;35.75;;;;;;;;5058237;27;51051;-61
2022/02/10 18:00:10;;;;;;;;;49.50;36.25;;;;;;;;5074415;27;51230;-60
2022/02/10 18:03:02;;;;;;;;;48.50;37.50;;;;;;;;5068822;27;51244;-62
2022/02/10 18:05:58;;;;;;;;;52.25;33.75;;;;;;;;5067608;27;51449;-63
2022/02/10 18:09:21;;;;;;;;;46.50;34.50;;;;;;;;5070273;27;51152;-61
2022/02/10 18:18:17;;;;;;;;;49.50;35.75;;;;;;;;5056180;27;51121;-63
2022/02/10 18:21:22;;;;;;;;;51.00;37.50;;;;;;;;5070957;27;51542;-62
2022/02/10 18:24:56;;;;;;;;;47.50;34.00;;;;;;;;5070454;27;51161;-63
2022/02/10 19:09:25;;;;;;;;;47.50;34.25;;;;;;;;5076673;27;51062;-63
2022/02/10 19:12:24;;;;;;;;;51.00;35.25;;;;;;;;5078839;27;51149;-62
2022/02/10 19:15:16;;;;;;;;;48.25;34.00;;;;;;;;5075672;27;51181;-63
2022/02/10 19:18:08;;;;;;;;;50.75;36.00;;;;;;;;5062664;27;51102;-62
2022/02/10 19:20:52;;;;;;;;;45.25;34.75;;;;;;;;5079956;27;50996;-62
2022/02/10 19:23:37;;;;;;;;;48.00;35.00;;;;;;;;5064396;27;51351;-61
2022/02/10 19:26:22;;;;;;;;;41.75;34.25;;;;;;;;5079309;27;51134;-63
2022/02/10 19:29:06;;;;;;;;;46.25;34.75;;;;;;;;5066486;27;51163;-62
2022/02/10 19:31:52;;;;;;;;;46.75;32.50;;;;;;;;5077861;27;51600;-63
2022/02/10 19:34:38;;;;;;;;;42.75;32.25;;;;;;;;5079408;27;51123;-63
2022/02/10 19:37:23;;;;;;;;;42.75;33.75;;;;;;;;5067189;27;51112;-61
2022/02/10 19:40:08;;;;;;;;;40.75;33.25;;;;;;;;5063347;27;51598;-62
2022/02/10 19:42:54;;;;;;;;;50.50;36.75;;;;;;;;5068513;27;51184;-62
2022/02/10 19:45:39;;;;;;;;;46.50;34.50;;;;;;;;5078339;27;51555;-62
2022/02/10 19:48:26;;;;;;;;;48.00;34.75;;;;;;;;5063199;27;51250;-64
2022/02/10 19:51:10;;;;;;;;;51.75;37.00;;;;;;;;5074202;27;51125;-63
2022/02/10 19:53:56;;;;;;;;;51.00;34.50;;;;;;;;5069668;27;51143;-64
2022/02/10 19:56:40;;;;;;;;;50.00;36.00;;;;;;;;5057249;27;51700;-62
2022/02/10 19:59:28;;;;;;;;;50.75;35.00;;;;;;;;5065332;27;51256;-59
2022/02/10 20:02:13;;;;;;;;;45.75;36.00;;;;;;;;5077995;27;51123;-60
2022/02/10 20:04:57;;;;;;;;;44.75;33.00;;;;;;;;5062849;27;51183;-58
2022/02/10 20:07:47;;;;;;;;;46.75;33.50;;;;;;;;5074432;27;51177;-57
2022/02/10 20:10:32;;;;;;;;;39.25;27.00;;;;;;;;5067955;27;51629;-58
2022/02/10 20:13:16;;;;;;;;;47.50;33.25;;;;;;;;5067000;27;51011;-59
2022/02/10 20:16:06;;;;;;;;;44.75;34.25;;;;;;;;5067032;28;51557;-58
2022/02/10 20:18:50;;;;;;;;;48.50;35.50;;;;;;;;5069271;28;51204;-63
2022/02/10 20:21:36;;;;;;;;;42.25;31.25;;;;;;;;5065156;28;51666;-58
2022/02/10 20:24:20;;;;;;;;;41.75;33.00;;;;;;;;5051016;28;51142;-63
2022/02/10 20:27:05;;;;;;;;;45.00;33.50;;;;;;;;5052192;28;52144;-60
2022/02/10 20:29:50;;;;;;;;;48.50;34.75;;;;;;;;5052871;28;51524;-59
2022/02/10 20:32:37;;;;;;;;;47.00;33.00;;;;;;;;5052319;28;51008;-59
2022/02/10 20:35:21;;;;;;;;;46.00;35.75;;;;;;;;5069020;28;52065;-58
2022/02/10 20:38:08;;;;;;;;;44.00;34.50;;;;;;;;5071010;27;51265;-59
2022/02/10 20:41:00;;;;;;;;;44.25;33.50;;;;;;;;5058212;27;51564;-62
2022/02/10 20:43:45;;;;;;;;;50.50;38.25;;;;;;;;5070739;27;51151;-60
2022/02/10 20:46:32;;;;;;;;;47.25;33.50;;;;;;;;5072082;27;51637;-59
2022/02/10 20:49:17;;;;;;;;;33.50;27.75;;;;;;;;5067454;27;51134;-61
2022/02/10 20:52:01;;;;;;;;;52.50;34.75;;;;;;;;5068898;27;51592;-61
2022/02/10 20:54:46;;;;;;;;;40.25;30.50;;;;;;;;5074921;27;51154;-61
2022/02/10 20:57:31;;;;;;;;;49.00;34.50;;;;;;;;5072990;27;51241;-61
2022/02/10 21:00:18;;;;;;;;;44.00;32.75;;;;;;;;5070614;27;51551;-58
2022/02/10 21:03:02;;;;;;;;;45.50;33.75;;;;;;;;5057668;27;51398;-59
2022/02/10 21:05:48;;;;;;;;;52.50;36.25;;;;;;;;5068571;27;51108;-58
2022/02/10 21:08:41;;;;;;;;;44.00;34.25;;;;;;;;5076442;27;51167;-60
2022/02/10 21:11:28;;;;;;;;;47.25;34.50;;;;;;;;5068617;27;51184;-62
2022/02/10 21:14:18;;;;;;;;;45.75;32.00;;;;;;;;5075435;27;51053;-59
2022/02/10 21:17:08;;;;;;;;;47.00;36.50;;;;;;;;5067794;27;51191;-58
2022/02/10 21:19:59;;;;;;;;;45.50;32.50;;;;;;;;5058456;27;51349;-59
2022/02/10 21:22:47;;;;;;;;;48.50;35.25;;;;;;;;5071390;27;51086;-61
2022/02/10 21:25:36;;;;;;;;;47.00;34.00;;;;;;;;5070115;27;51667;-58
2022/02/10 21:28:28;;;;;;;;;40.25;32.75;;;;;;;;5069771;27;51109;-58
2022/02/10 21:31:12;;;;;;;;;44.00;32.75;;;;;;;;5069474;27;51546;-61
2022/02/10 21:34:26;;;;;;;;;33.25;30.25;;;;;;;;5069447;27;51167;-62
2022/02/10 21:37:13;;;;;;;;;49.25;34.00;;;;;;;;5072871;27;51215;-60
2022/02/10 21:40:13;;;;;;;;;41.50;32.75;;;;;;;;5071844;27;51096;-58
2022/02/10 22:05:08;;;;;;;;;36.00;31.25;;;;;;;;5078009;27;51694;-61
2022/02/10 22:18:51;;;;;;;;;49.75;34.75;;;;;;;;5072158;27;51597;-61
2022/02/10 22:21:44;;;;;;;;;42.75;34.00;;;;;;;;5077364;27;51147;-61
2022/02/10 22:24:28;;;;;;;;;45.50;33.75;;;;;;;;5077117;27;51275;-62
2022/02/10 22:27:17;;;;;;;;;46.00;33.75;;;;;;;;5072135;27;51116;-58
2022/02/10 22:30:09;;;;;;;;;43.50;30.00;;;;;;;;5072463;27;51097;-58
2022/02/10 22:33:14;;;;;;;;;44.25;33.75;;;;;;;;5070492;27;51154;-62
2022/02/10 22:35:59;;;;;;;;;49.50;38.25;;;;;;;;5071252;27;51161;-59
2022/02/10 22:38:43;;;;;;;;;47.75;36.00;;;;;;;;5071340;27;51868;-56
2022/02/10 22:41:28;;;;;;;;;44.25;33.50;;;;;;;;5070919;27;51225;-60
2022/02/10 22:44:13;;;;;;;;;49.50;35.50;;;;;;;;5071898;27;51126;-61
2022/02/10 22:46:57;;;;;;;;;49.00;34.25;;;;;;;;5073851;27;51120;-62
2022/02/10 22:49:42;;;;;;;;;47.00;33.75;;;;;;;;5077674;27;51162;-60
2022/02/10 22:52:26;;;;;;;;;45.25;31.00;;;;;;;;5074702;27;51176;-63
2022/02/10 22:55:11;;;;;;;;;45.50;34.00;;;;;;;;5075566;27;51864;-60
2022/02/10 22:57:55;;;;;;;;;40.00;32.00;;;;;;;;5073706;27;51124;-60
2022/02/10 23:00:49;;;;;;;;;44.25;33.00;;;;;;;;5074245;27;51468;-61
2022/02/10 23:03:36;;;;;;;;;50.50;37.00;;;;;;;;5070788;27;51499;-58
2022/02/10 23:06:20;;;;;;;;;43.50;33.00;;;;;;;;5072782;27;51155;-59
2022/02/10 23:12:09;;;;;;;;;45.75;33.25;;;;;;;;5069525;27;51181;-61
2022/02/10 23:14:53;;;;;;;;;49.00;35.00;;;;;;;;5072809;27;51112;-58
2022/02/10 23:17:39;;;;;;;;;45.75;35.00;;;;;;;;5073501;27;51098;-60
2022/02/10 23:20:24;;;;;;;;;49.25;35.25;;;;;;;;5073033;27;51536;-59
2022/02/10 23:23:10;;;;;;;;;47.00;34.50;;;;;;;;5067835;27;51209;-57
2022/02/10 23:25:55;;;;;;;;;49.00;35.00;;;;;;;;5069970;27;51106;-61
2022/02/10 23:28:41;;;;;;;;;36.25;25.75;;;;;;;;5071857;27;51384;-61
2022/02/10 23:31:26;;;;;;;;;47.25;33.50;;;;;;;;5075946;27;51103;-63
2022/02/10 23:34:10;;;;;;;;;49.00;34.50;;;;;;;;5071160;27;51204;-59
2022/02/10 23:36:55;;;;;;;;;48.25;32.00;;;;;;;;5070827;27;51078;-59
2022/02/10 23:39:45;;;;;;;;;34.25;31.50;;;;;;;;5068821;27;52540;-58
2022/02/10 23:42:32;;;;;;;;;46.50;33.25;;;;;;;;5071082;27;51106;-59
2022/02/10 23:45:22;;;;;;;;;55.50;38.75;;;;;;;;5074061;27;51529;-62
2022/02/10 23:48:06;;;;;;;;;45.00;33.00;;;;;;;;5069691;27;51200;-59
2022/02/10 23:50:51;;;;;;;;;46.75;32.75;;;;;;;;5076417;27;51206;-58
2022/02/10 23:53:35;;;;;;;;;38.50;33.50;;;;;;;;5072698;27;51113;-61
2022/02/10 23:56:25;;;;;;;;;48.25;32.75;;;;;;;;5072296;27;52710;-59
2022/02/10 23:59:17;;;;;;;;;50.00;35.50;;;;;;;;5071140;27;51254;-61
